sensor_id;sensor_type;location;lat;lon;timestamp;P1;durP1;ratioP1;P2;durP2;ratioP2
9801;SDS011;4940;50.900;4.672;2023-02-28T00:01:10;9.27;;;4.97;;
9801;SDS011;4940;50.900;4.672;2023-02-28T00:03:38;6.43;;;4.80;;
9801;SDS011;4940;50.900;4.672;2023-02-28T00:06:06;7.90;;;5.00;;
9801;SDS011;4940;50.900;4.672;2023-02-28T00:08:34;9.90;;;4.97;;
9801;SDS011;4940;50.900;4.672;2023-02-28T00:11:03;8.30;;;5.20;;
9801;SDS011;4940;50.900;4.672;2023-02-28T00:13:33;7.83;;;4.70;;
9801;SDS011;4940;50.900;4.672;2023-02-28T00:16:01;10.17;;;5.17;;
9801;SDS011;4940;50.900;4.672;2023-02-28T00:18:29;8.87;;;5.10;;
9801;SDS011;4940;50.900;4.672;2023-02-28T00:20:57;7.47;;;4.67;;
9801;SDS011;4940;50.900;4.672;2023-02-28T00:23:24;11.50;;;4.70;;
9801;SDS011;4940;50.900;4.672;2023-02-28T00:25:52;9.20;;;4.80;;
9801;SDS011;4940;50.900;4.672;2023-02-28T00:28:21;9.10;;;5.00;;
9801;SDS011;4940;50.900;4.672;2023-02-28T00:30:48;9.23;;;5.13;;
9801;SDS011;4940;50.900;4.672;2023-02-28T00:33:16;9.33;;;5.27;;
9801;SDS011;4940;50.900;4.672;2023-02-28T00:35:43;7.37;;;4.80;;
9801;SDS011;4940;50.900;4.672;2023-02-28T00:38:12;7.90;;;4.83;;
9801;SDS011;4940;50.900;4.672;2023-02-28T00:40:39;6.50;;;4.27;;
9801;SDS011;4940;50.900;4.672;2023-02-28T00:43:07;7.33;;;4.43;;
9801;SDS011;4940;50.900;4.672;2023-02-28T00:45:35;7.67;;;4.80;;
9801;SDS011;4940;50.900;4.672;2023-02-28T00:48:03;7.33;;;4.00;;
9801;SDS011;4940;50.900;4.672;2023-02-28T00:50:30;7.60;;;4.77;;
9801;SDS011;4940;50.900;4.672;2023-02-28T00:52:58;8.17;;;4.30;;
9801;SDS011;4940;50.900;4.672;2023-02-28T00:55:25;7.27;;;4.80;;
9801;SDS011;4940;50.900;4.672;2023-02-28T00:57:52;8.10;;;4.90;;
9801;SDS011;4940;50.900;4.672;2023-02-28T01:00:20;7.17;;;4.63;;
9801;SDS011;4940;50.900;4.672;2023-02-28T01:02:49;7.77;;;4.70;;
9801;SDS011;4940;50.900;4.672;2023-02-28T01:05:16;8.07;;;4.73;;
9801;SDS011;4940;50.900;4.672;2023-02-28T01:07:44;7.17;;;4.70;;
9801;SDS011;4940;50.900;4.672;2023-02-28T01:10:11;9.57;;;4.80;;
9801;SDS011;4940;50.900;4.672;2023-02-28T01:12:38;7.73;;;4.60;;
9801;SDS011;4940;50.900;4.672;2023-02-28T01:15:06;7.87;;;4.67;;
9801;SDS011;4940;50.900;4.672;2023-02-28T01:17:36;6.80;;;4.43;;
9801;SDS011;4940;50.900;4.672;2023-02-28T01:20:05;7.77;;;4.30;;
9801;SDS011;4940;50.900;4.672;2023-02-28T01:22:35;9.97;;;4.63;;
9801;SDS011;4940;50.900;4.672;2023-02-28T01:25:02;6.50;;;4.20;;
9801;SDS011;4940;50.900;4.672;2023-02-28T01:27:30;6.37;;;4.10;;
9801;SDS011;4940;50.900;4.672;2023-02-28T01:29:57;5.33;;;3.50;;
9801;SDS011;4940;50.900;4.672;2023-02-28T01:32:25;9.77;;;4.83;;
9801;SDS011;4940;50.900;4.672;2023-02-28T01:34:52;6.50;;;4.50;;
9801;SDS011;4940;50.900;4.672;2023-02-28T01:37:21;8.27;;;4.67;;
9801;SDS011;4940;50.900;4.672;2023-02-28T01:39:48;7.43;;;4.50;;
9801;SDS011;4940;50.900;4.672;2023-02-28T01:42:16;8.63;;;5.10;;
9801;SDS011;4940;50.900;4.672;2023-02-28T01:47:41;7.73;;;4.83;;
9801;SDS011;4940;50.900;4.672;2023-02-28T01:50:11;7.90;;;4.23;;
9801;SDS011;4940;50.900;4.672;2023-02-28T01:52:42;8.23;;;5.27;;
9801;SDS011;4940;50.900;4.672;2023-02-28T01:55:10;7.77;;;4.83;;
9801;SDS011;4940;50.900;4.672;2023-02-28T01:57:40;9.73;;;5.40;;
9801;SDS011;4940;50.900;4.672;2023-02-28T02:00:10;11.50;;;4.57;;
9801;SDS011;4940;50.900;4.672;2023-02-28T02:02:40;6.33;;;4.77;;
9801;SDS011;4940;50.900;4.672;2023-02-28T02:05:10;7.43;;;5.20;;
9801;SDS011;4940;50.900;4.672;2023-02-28T02:07:42;7.57;;;4.50;;
9801;SDS011;4940;50.900;4.672;2023-02-28T02:10:11;9.83;;;5.40;;
9801;SDS011;4940;50.900;4.672;2023-02-28T02:12:47;10.93;;;5.77;;
9801;SDS011;4940;50.900;4.672;2023-02-28T02:15:29;9.57;;;5.03;;
9801;SDS011;4940;50.900;4.672;2023-02-28T02:18:01;7.20;;;4.80;;
9801;SDS011;4940;50.900;4.672;2023-02-28T02:20:53;7.60;;;4.93;;
9801;SDS011;4940;50.900;4.672;2023-02-28T02:27:05;6.83;;;4.57;;
9801;SDS011;4940;50.900;4.672;2023-02-28T02:29:46;7.97;;;5.00;;
9801;SDS011;4940;50.900;4.672;2023-02-28T02:32:41;6.30;;;4.67;;
9801;SDS011;4940;50.900;4.672;2023-02-28T02:35:34;9.77;;;4.87;;
9801;SDS011;4940;50.900;4.672;2023-02-28T02:38:09;8.77;;;5.10;;
9801;SDS011;4940;50.900;4.672;2023-02-28T02:40:43;10.63;;;5.27;;
9801;SDS011;4940;50.900;4.672;2023-02-28T02:43:15;9.87;;;5.10;;
9801;SDS011;4940;50.900;4.672;2023-02-28T02:45:47;6.97;;;4.80;;
9801;SDS011;4940;50.900;4.672;2023-02-28T02:48:19;9.80;;;5.20;;
9801;SDS011;4940;50.900;4.672;2023-02-28T02:50:52;9.17;;;5.63;;
9801;SDS011;4940;50.900;4.672;2023-02-28T02:53:23;9.70;;;5.07;;
9801;SDS011;4940;50.900;4.672;2023-02-28T02:55:55;8.03;;;4.57;;
9801;SDS011;4940;50.900;4.672;2023-02-28T02:58:24;7.20;;;4.87;;
9801;SDS011;4940;50.900;4.672;2023-02-28T03:00:56;12.87;;;5.37;;
9801;SDS011;4940;50.900;4.672;2023-02-28T03:03:26;7.93;;;5.43;;
9801;SDS011;4940;50.900;4.672;2023-02-28T03:05:57;10.40;;;5.43;;
9801;SDS011;4940;50.900;4.672;2023-02-28T03:08:27;11.57;;;5.97;;
9801;SDS011;4940;50.900;4.672;2023-02-28T03:10:56;7.57;;;4.97;;
9801;SDS011;4940;50.900;4.672;2023-02-28T03:13:31;10.97;;;6.00;;
9801;SDS011;4940;50.900;4.672;2023-02-28T03:19:23;7.80;;;5.13;;
9801;SDS011;4940;50.900;4.672;2023-02-28T03:22:02;8.53;;;5.87;;
9801;SDS011;4940;50.900;4.672;2023-02-28T03:24:40;9.03;;;4.90;;
9801;SDS011;4940;50.900;4.672;2023-02-28T03:27:16;11.33;;;6.13;;
9801;SDS011;4940;50.900;4.672;2023-02-28T03:29:47;8.70;;;5.73;;
9801;SDS011;4940;50.900;4.672;2023-02-28T03:32:19;8.60;;;5.53;;
9801;SDS011;4940;50.900;4.672;2023-02-28T03:34:54;8.43;;;5.13;;
9801;SDS011;4940;50.900;4.672;2023-02-28T03:37:26;8.43;;;5.70;;
9801;SDS011;4940;50.900;4.672;2023-02-28T03:39:57;9.97;;;5.63;;
9801;SDS011;4940;50.900;4.672;2023-02-28T03:42:28;9.90;;;6.13;;
9801;SDS011;4940;50.900;4.672;2023-02-28T03:44:58;8.40;;;5.93;;
9801;SDS011;4940;50.900;4.672;2023-02-28T03:47:29;12.07;;;6.30;;
9801;SDS011;4940;50.900;4.672;2023-02-28T03:50:02;9.20;;;6.13;;
9801;SDS011;4940;50.900;4.672;2023-02-28T03:52:35;10.30;;;5.63;;
9801;SDS011;4940;50.900;4.672;2023-02-28T03:55:08;7.43;;;5.87;;
9801;SDS011;4940;50.900;4.672;2023-02-28T03:57:38;8.47;;;5.53;;
9801;SDS011;4940;50.900;4.672;2023-02-28T04:00:08;11.70;;;5.83;;
9801;SDS011;4940;50.900;4.672;2023-02-28T04:02:39;8.27;;;6.30;;
9801;SDS011;4940;50.900;4.672;2023-02-28T04:05:07;9.60;;;6.50;;
9801;SDS011;4940;50.900;4.672;2023-02-28T04:07:36;13.00;;;6.73;;
9801;SDS011;4940;50.900;4.672;2023-02-28T04:10:04;7.57;;;6.10;;
9801;SDS011;4940;50.900;4.672;2023-02-28T04:12:32;10.00;;;7.07;;
9801;SDS011;4940;50.900;4.672;2023-02-28T04:15:00;15.67;;;7.47;;
9801;SDS011;4940;50.900;4.672;2023-02-28T04:17:27;11.00;;;7.30;;
9801;SDS011;4940;50.900;4.672;2023-02-28T04:19:55;10.47;;;8.00;;
9801;SDS011;4940;50.900;4.672;2023-02-28T04:22:23;12.17;;;8.60;;
9801;SDS011;4940;50.900;4.672;2023-02-28T04:24:53;10.33;;;8.57;;
9801;SDS011;4940;50.900;4.672;2023-02-28T04:27:21;11.23;;;8.47;;
9801;SDS011;4940;50.900;4.672;2023-02-28T04:29:48;13.20;;;8.70;;
9801;SDS011;4940;50.900;4.672;2023-02-28T04:32:15;10.87;;;8.53;;
9801;SDS011;4940;50.900;4.672;2023-02-28T04:34:43;14.10;;;8.43;;
9801;SDS011;4940;50.900;4.672;2023-02-28T04:37:10;9.53;;;7.20;;
9801;SDS011;4940;50.900;4.672;2023-02-28T04:39:38;12.83;;;8.53;;
9801;SDS011;4940;50.900;4.672;2023-02-28T04:42:07;10.23;;;7.63;;
9801;SDS011;4940;50.900;4.672;2023-02-28T04:44:34;10.30;;;7.30;;
9801;SDS011;4940;50.900;4.672;2023-02-28T04:47:01;11.53;;;7.30;;
9801;SDS011;4940;50.900;4.672;2023-02-28T04:49:29;14.97;;;8.10;;
9801;SDS011;4940;50.900;4.672;2023-02-28T04:51:56;13.17;;;7.00;;
9801;SDS011;4940;50.900;4.672;2023-02-28T04:54:24;14.30;;;6.90;;
9801;SDS011;4940;50.900;4.672;2023-02-28T04:56:51;10.67;;;6.83;;
9801;SDS011;4940;50.900;4.672;2023-02-28T04:59:21;8.80;;;6.47;;
9801;SDS011;4940;50.900;4.672;2023-02-28T05:01:48;14.00;;;7.70;;
9801;SDS011;4940;50.900;4.672;2023-02-28T05:04:16;12.17;;;6.83;;
9801;SDS011;4940;50.900;4.672;2023-02-28T05:06:43;11.40;;;7.63;;
9801;SDS011;4940;50.900;4.672;2023-02-28T05:09:11;12.80;;;7.70;;
9801;SDS011;4940;50.900;4.672;2023-02-28T05:11:38;17.00;;;8.40;;
9801;SDS011;4940;50.900;4.672;2023-02-28T05:14:06;11.73;;;7.53;;
9801;SDS011;4940;50.900;4.672;2023-02-28T05:16:38;12.90;;;8.43;;
9801;SDS011;4940;50.900;4.672;2023-02-28T05:19:05;11.63;;;8.20;;
9801;SDS011;4940;50.900;4.672;2023-02-28T05:21:34;12.60;;;8.10;;
9801;SDS011;4940;50.900;4.672;2023-02-28T05:24:03;14.63;;;9.50;;
9801;SDS011;4940;50.900;4.672;2023-02-28T05:26:34;14.07;;;9.90;;
9801;SDS011;4940;50.900;4.672;2023-02-28T05:29:02;18.70;;;10.10;;
9801;SDS011;4940;50.900;4.672;2023-02-28T05:31:30;14.70;;;10.43;;
9801;SDS011;4940;50.900;4.672;2023-02-28T05:33:59;14.17;;;10.93;;
9801;SDS011;4940;50.900;4.672;2023-02-28T05:36:26;19.07;;;11.80;;
9801;SDS011;4940;50.900;4.672;2023-02-28T05:38:53;15.10;;;11.30;;
9801;SDS011;4940;50.900;4.672;2023-02-28T05:41:21;15.97;;;12.47;;
9801;SDS011;4940;50.900;4.672;2023-02-28T05:43:48;16.07;;;12.80;;
9801;SDS011;4940;50.900;4.672;2023-02-28T05:46:16;16.87;;;13.10;;
9801;SDS011;4940;50.900;4.672;2023-02-28T05:48:46;16.37;;;13.53;;
9801;SDS011;4940;50.900;4.672;2023-02-28T05:51:15;16.87;;;12.73;;
9801;SDS011;4940;50.900;4.672;2023-02-28T05:53:43;15.80;;;12.33;;
9801;SDS011;4940;50.900;4.672;2023-02-28T05:56:11;16.87;;;11.50;;
9801;SDS011;4940;50.900;4.672;2023-02-28T05:58:38;15.83;;;11.10;;
9801;SDS011;4940;50.900;4.672;2023-02-28T06:01:19;16.43;;;11.83;;
9801;SDS011;4940;50.900;4.672;2023-02-28T06:03:51;15.23;;;11.60;;
9801;SDS011;4940;50.900;4.672;2023-02-28T06:06:20;18.37;;;12.20;;
9801;SDS011;4940;50.900;4.672;2023-02-28T06:08:47;16.70;;;12.00;;
9801;SDS011;4940;50.900;4.672;2023-02-28T06:11:14;13.70;;;12.40;;
9801;SDS011;4940;50.900;4.672;2023-02-28T06:13:42;12.47;;;10.33;;
9801;SDS011;4940;50.900;4.672;2023-02-28T06:16:10;17.40;;;10.97;;
9801;SDS011;4940;50.900;4.672;2023-02-28T06:18:37;19.03;;;11.47;;
9801;SDS011;4940;50.900;4.672;2023-02-28T06:21:05;14.53;;;11.13;;
9801;SDS011;4940;50.900;4.672;2023-02-28T06:23:35;19.83;;;13.27;;
9801;SDS011;4940;50.900;4.672;2023-02-28T06:26:02;14.87;;;11.17;;
9801;SDS011;4940;50.900;4.672;2023-02-28T06:28:30;16.33;;;11.87;;
9801;SDS011;4940;50.900;4.672;2023-02-28T06:30:58;18.93;;;12.33;;
9801;SDS011;4940;50.900;4.672;2023-02-28T06:33:25;14.90;;;11.87;;
9801;SDS011;4940;50.900;4.672;2023-02-28T06:35:53;21.33;;;13.10;;
9801;SDS011;4940;50.900;4.672;2023-02-28T06:38:20;16.93;;;13.60;;
9801;SDS011;4940;50.900;4.672;2023-02-28T06:40:54;18.33;;;14.30;;
9801;SDS011;4940;50.900;4.672;2023-02-28T06:43:21;16.53;;;14.77;;
9801;SDS011;4940;50.900;4.672;2023-02-28T06:45:49;17.83;;;16.03;;
9801;SDS011;4940;50.900;4.672;2023-02-28T06:48:16;19.33;;;17.33;;
9801;SDS011;4940;50.900;4.672;2023-02-28T06:50:44;18.03;;;16.20;;
9801;SDS011;4940;50.900;4.672;2023-02-28T06:53:12;19.77;;;17.80;;
9801;SDS011;4940;50.900;4.672;2023-02-28T06:55:39;20.60;;;17.53;;
9801;SDS011;4940;50.900;4.672;2023-02-28T06:58:08;25.33;;;17.67;;
9801;SDS011;4940;50.900;4.672;2023-02-28T07:00:43;19.20;;;17.20;;
9801;SDS011;4940;50.900;4.672;2023-02-28T07:03:11;19.70;;;16.07;;
9801;SDS011;4940;50.900;4.672;2023-02-28T07:05:40;20.00;;;16.93;;
9801;SDS011;4940;50.900;4.672;2023-02-28T07:08:08;21.17;;;17.40;;
9801;SDS011;4940;50.900;4.672;2023-02-28T07:10:36;19.80;;;15.50;;
9801;SDS011;4940;50.900;4.672;2023-02-28T07:13:05;18.90;;;17.10;;
9801;SDS011;4940;50.900;4.672;2023-02-28T07:15:35;21.67;;;19.40;;
9801;SDS011;4940;50.900;4.672;2023-02-28T07:18:02;21.53;;;19.57;;
9801;SDS011;4940;50.900;4.672;2023-02-28T07:20:31;24.97;;;22.67;;
9801;SDS011;4940;50.900;4.672;2023-02-28T07:22:58;26.63;;;24.20;;
9801;SDS011;4940;50.900;4.672;2023-02-28T07:25:26;27.33;;;24.87;;
9801;SDS011;4940;50.900;4.672;2023-02-28T07:27:55;28.87;;;26.37;;
9801;SDS011;4940;50.900;4.672;2023-02-28T07:30:24;29.30;;;26.60;;
9801;SDS011;4940;50.900;4.672;2023-02-28T07:32:53;31.20;;;28.10;;
9801;SDS011;4940;50.900;4.672;2023-02-28T07:35:21;31.90;;;28.63;;
9801;SDS011;4940;50.900;4.672;2023-02-28T07:37:48;34.73;;;31.33;;
9801;SDS011;4940;50.900;4.672;2023-02-28T07:40:16;35.17;;;32.17;;
9801;SDS011;4940;50.900;4.672;2023-02-28T07:42:44;37.07;;;33.87;;
9801;SDS011;4940;50.900;4.672;2023-02-28T07:45:11;35.07;;;31.97;;
9801;SDS011;4940;50.900;4.672;2023-02-28T07:47:39;35.17;;;32.03;;
9801;SDS011;4940;50.900;4.672;2023-02-28T07:50:10;33.00;;;30.13;;
9801;SDS011;4940;50.900;4.672;2023-02-28T07:52:39;32.50;;;29.60;;
9801;SDS011;4940;50.900;4.672;2023-02-28T07:55:07;30.53;;;27.53;;
9801;SDS011;4940;50.900;4.672;2023-02-28T07:57:36;29.87;;;27.10;;
9801;SDS011;4940;50.900;4.672;2023-02-28T08:00:03;30.63;;;27.87;;
9801;SDS011;4940;50.900;4.672;2023-02-28T08:02:32;33.70;;;30.90;;
9801;SDS011;4940;50.900;4.672;2023-02-28T08:04:59;34.77;;;31.47;;
9801;SDS011;4940;50.900;4.672;2023-02-28T08:07:28;28.47;;;26.10;;
9801;SDS011;4940;50.900;4.672;2023-02-28T08:09:55;21.00;;;19.17;;
9801;SDS011;4940;50.900;4.672;2023-02-28T08:12:23;14.10;;;12.63;;
9801;SDS011;4940;50.900;4.672;2023-02-28T08:14:50;10.03;;;8.33;;
9801;SDS011;4940;50.900;4.672;2023-02-28T08:17:18;11.13;;;6.40;;
9801;SDS011;4940;50.900;4.672;2023-02-28T08:19:45;8.87;;;5.47;;
9801;SDS011;4940;50.900;4.672;2023-02-28T08:22:13;8.23;;;5.30;;
9801;SDS011;4940;50.900;4.672;2023-02-28T08:24:42;8.20;;;4.88;;
9801;SDS011;4940;50.900;4.672;2023-02-28T08:27:10;7.93;;;4.57;;
9801;SDS011;4940;50.900;4.672;2023-02-28T08:29:38;7.03;;;4.47;;
9801;SDS011;4940;50.900;4.672;2023-02-28T08:32:06;5.57;;;3.90;;
9801;SDS011;4940;50.900;4.672;2023-02-28T08:34:33;7.30;;;4.32;;
9801;SDS011;4940;50.900;4.672;2023-02-28T08:37:01;8.75;;;3.88;;
9801;SDS011;4940;50.900;4.672;2023-02-28T08:39:28;7.10;;;3.90;;
9801;SDS011;4940;50.900;4.672;2023-02-28T08:41:57;8.18;;;4.10;;
9801;SDS011;4940;50.900;4.672;2023-02-28T08:44:24;7.07;;;3.90;;
9801;SDS011;4940;50.900;4.672;2023-02-28T08:46:52;10.25;;;3.58;;
9801;SDS011;4940;50.900;4.672;2023-02-28T08:49:19;6.75;;;3.60;;
9801;SDS011;4940;50.900;4.672;2023-02-28T08:51:47;7.80;;;3.72;;
9801;SDS011;4940;50.900;4.672;2023-02-28T08:54:14;4.55;;;2.83;;
9801;SDS011;4940;50.900;4.672;2023-02-28T08:56:44;5.10;;;3.30;;
9801;SDS011;4940;50.900;4.672;2023-02-28T08:59:13;6.13;;;3.15;;
9801;SDS011;4940;50.900;4.672;2023-02-28T09:01:41;5.78;;;3.60;;
9801;SDS011;4940;50.900;4.672;2023-02-28T09:04:09;4.30;;;3.08;;
9801;SDS011;4940;50.900;4.672;2023-02-28T09:06:37;8.27;;;3.28;;
9801;SDS011;4940;50.900;4.672;2023-02-28T09:09:04;4.90;;;3.17;;
9801;SDS011;4940;50.900;4.672;2023-02-28T09:11:32;6.55;;;3.30;;
9801;SDS011;4940;50.900;4.672;2023-02-28T09:14:01;5.47;;;3.30;;
9801;SDS011;4940;50.900;4.672;2023-02-28T09:16:31;8.00;;;3.03;;
9801;SDS011;4940;50.900;4.672;2023-02-28T09:18:59;4.72;;;3.38;;
9801;SDS011;4940;50.900;4.672;2023-02-28T09:21:27;4.95;;;3.20;;
9801;SDS011;4940;50.900;4.672;2023-02-28T09:23:54;3.95;;;2.65;;
9801;SDS011;4940;50.900;4.672;2023-02-28T09:26:23;3.33;;;2.83;;
9801;SDS011;4940;50.900;4.672;2023-02-28T09:28:51;3.58;;;2.65;;
9801;SDS011;4940;50.900;4.672;2023-02-28T09:31:20;4.78;;;3.15;;
9801;SDS011;4940;50.900;4.672;2023-02-28T09:33:50;4.22;;;2.53;;
9801;SDS011;4940;50.900;4.672;2023-02-28T09:36:19;4.65;;;2.63;;
9801;SDS011;4940;50.900;4.672;2023-02-28T09:38:50;4.03;;;2.65;;
9801;SDS011;4940;50.900;4.672;2023-02-28T09:41:19;3.30;;;2.40;;
9801;SDS011;4940;50.900;4.672;2023-02-28T09:43:49;2.97;;;2.00;;
9801;SDS011;4940;50.900;4.672;2023-02-28T09:46:23;3.65;;;1.98;;
9801;SDS011;4940;50.900;4.672;2023-02-28T09:48:57;3.10;;;2.25;;
9801;SDS011;4940;50.900;4.672;2023-02-28T09:51:37;3.25;;;2.10;;
9801;SDS011;4940;50.900;4.672;2023-02-28T09:54:12;2.60;;;2.17;;
9801;SDS011;4940;50.900;4.672;2023-02-28T09:56:44;3.00;;;1.92;;
9801;SDS011;4940;50.900;4.672;2023-02-28T09:59:19;2.30;;;1.73;;
9801;SDS011;4940;50.900;4.672;2023-02-28T10:01:57;4.20;;;2.40;;
9801;SDS011;4940;50.900;4.672;2023-02-28T10:04:36;2.53;;;1.90;;
9801;SDS011;4940;50.900;4.672;2023-02-28T10:07:17;2.63;;;2.22;;
9801;SDS011;4940;50.900;4.672;2023-02-28T10:09:52;3.20;;;2.00;;
9801;SDS011;4940;50.900;4.672;2023-02-28T10:12:21;1.67;;;1.48;;
9801;SDS011;4940;50.900;4.672;2023-02-28T10:14:53;1.48;;;1.33;;
9801;SDS011;4940;50.900;4.672;2023-02-28T10:17:21;1.83;;;1.50;;
9801;SDS011;4940;50.900;4.672;2023-02-28T10:19:56;2.78;;;1.65;;
9801;SDS011;4940;50.900;4.672;2023-02-28T10:22:34;2.97;;;2.10;;
9801;SDS011;4940;50.900;4.672;2023-02-28T10:25:05;3.63;;;1.65;;
9801;SDS011;4940;50.900;4.672;2023-02-28T10:27:41;3.08;;;2.28;;
9801;SDS011;4940;50.900;4.672;2023-02-28T10:30:09;4.22;;;1.90;;
9801;SDS011;4940;50.900;4.672;2023-02-28T10:32:39;2.45;;;2.03;;
9801;SDS011;4940;50.900;4.672;2023-02-28T10:35:10;3.53;;;1.92;;
9801;SDS011;4940;50.900;4.672;2023-02-28T10:37:42;3.63;;;2.00;;
9801;SDS011;4940;50.900;4.672;2023-02-28T10:40:26;3.22;;;2.13;;
9801;SDS011;4940;50.900;4.672;2023-02-28T10:42:58;2.75;;;2.05;;
9801;SDS011;4940;50.900;4.672;2023-02-28T10:45:27;2.33;;;1.90;;
9801;SDS011;4940;50.900;4.672;2023-02-28T10:47:57;4.63;;;1.90;;
9801;SDS011;4940;50.900;4.672;2023-02-28T10:50:31;2.55;;;1.80;;
9801;SDS011;4940;50.900;4.672;2023-02-28T10:53:07;2.10;;;1.80;;
9801;SDS011;4940;50.900;4.672;2023-02-28T10:55:41;2.13;;;1.52;;
9801;SDS011;4940;50.900;4.672;2023-02-28T10:58:18;5.03;;;1.95;;
9801;SDS011;4940;50.900;4.672;2023-02-28T11:00:48;2.15;;;1.70;;
9801;SDS011;4940;50.900;4.672;2023-02-28T11:03:22;2.92;;;1.65;;
9801;SDS011;4940;50.900;4.672;2023-02-28T11:05:53;4.38;;;2.15;;
9801;SDS011;4940;50.900;4.672;2023-02-28T11:08:21;3.10;;;2.13;;
9801;SDS011;4940;50.900;4.672;2023-02-28T11:10:53;2.95;;;1.80;;
9801;SDS011;4940;50.900;4.672;2023-02-28T11:13:24;2.78;;;1.90;;
9801;SDS011;4940;50.900;4.672;2023-02-28T11:15:53;2.90;;;1.90;;
9801;SDS011;4940;50.900;4.672;2023-02-28T11:18:23;2.47;;;1.80;;
9801;SDS011;4940;50.900;4.672;2023-02-28T11:20:55;2.65;;;1.90;;
9801;SDS011;4940;50.900;4.672;2023-02-28T11:23:26;2.80;;;1.67;;
9801;SDS011;4940;50.900;4.672;2023-02-28T11:25:56;2.60;;;1.40;;
9801;SDS011;4940;50.900;4.672;2023-02-28T11:28:27;1.52;;;1.40;;
9801;SDS011;4940;50.900;4.672;2023-02-28T11:31:00;2.75;;;2.03;;
9801;SDS011;4940;50.900;4.672;2023-02-28T11:33:30;2.60;;;1.90;;
9801;SDS011;4940;50.900;4.672;2023-02-28T11:36:00;2.20;;;1.63;;
9801;SDS011;4940;50.900;4.672;2023-02-28T11:38:30;3.20;;;1.48;;
9801;SDS011;4940;50.900;4.672;2023-02-28T11:41:05;2.10;;;1.90;;
9801;SDS011;4940;50.900;4.672;2023-02-28T11:44:00;2.58;;;1.60;;
9801;SDS011;4940;50.900;4.672;2023-02-28T11:46:41;2.05;;;1.58;;
9801;SDS011;4940;50.900;4.672;2023-02-28T11:49:21;2.22;;;1.80;;
9801;SDS011;4940;50.900;4.672;2023-02-28T11:52:02;2.35;;;1.58;;
9801;SDS011;4940;50.900;4.672;2023-02-28T11:54:47;2.65;;;1.65;;
9801;SDS011;4940;50.900;4.672;2023-02-28T11:57:30;2.95;;;1.88;;
9801;SDS011;4940;50.900;4.672;2023-02-28T12:00:03;1.98;;;1.45;;
9801;SDS011;4940;50.900;4.672;2023-02-28T12:02:45;2.35;;;1.73;;
9801;SDS011;4940;50.900;4.672;2023-02-28T12:05:24;2.33;;;1.67;;
9801;SDS011;4940;50.900;4.672;2023-02-28T12:08:02;4.95;;;1.80;;
9801;SDS011;4940;50.900;4.672;2023-02-28T12:10:42;2.03;;;1.80;;
9801;SDS011;4940;50.900;4.672;2023-02-28T12:13:17;1.90;;;1.50;;
9801;SDS011;4940;50.900;4.672;2023-02-28T12:15:59;3.80;;;2.10;;
9801;SDS011;4940;50.900;4.672;2023-02-28T12:21:59;1.85;;;1.70;;
9801;SDS011;4940;50.900;4.672;2023-02-28T12:24:40;2.03;;;1.60;;
9801;SDS011;4940;50.900;4.672;2023-02-28T12:27:19;1.98;;;1.77;;
9801;SDS011;4940;50.900;4.672;2023-02-28T12:29:50;2.75;;;1.85;;
9801;SDS011;4940;50.900;4.672;2023-02-28T12:32:23;2.33;;;1.80;;
9801;SDS011;4940;50.900;4.672;2023-02-28T12:34:54;5.53;;;2.20;;
9801;SDS011;4940;50.900;4.672;2023-02-28T12:37:25;2.40;;;2.10;;
9801;SDS011;4940;50.900;4.672;2023-02-28T12:40:01;2.65;;;1.65;;
9801;SDS011;4940;50.900;4.672;2023-02-28T12:42:32;2.33;;;1.60;;
9801;SDS011;4940;50.900;4.672;2023-02-28T12:45:05;2.55;;;2.00;;
9801;SDS011;4940;50.900;4.672;2023-02-28T12:47:40;2.67;;;1.83;;
9801;SDS011;4940;50.900;4.672;2023-02-28T12:50:10;1.60;;;1.35;;
9801;SDS011;4940;50.900;4.672;2023-02-28T12:52:39;2.00;;;1.80;;
9801;SDS011;4940;50.900;4.672;2023-02-28T12:55:16;2.20;;;1.75;;
9801;SDS011;4940;50.900;4.672;2023-02-28T12:57:52;1.85;;;1.50;;
9801;SDS011;4940;50.900;4.672;2023-02-28T13:00:29;4.35;;;1.90;;
9801;SDS011;4940;50.900;4.672;2023-02-28T13:03:09;2.15;;;1.80;;
9801;SDS011;4940;50.900;4.672;2023-02-28T13:06:00;1.80;;;1.60;;
9801;SDS011;4940;50.900;4.672;2023-02-28T13:11:43;2.97;;;2.08;;
9801;SDS011;4940;50.900;4.672;2023-02-28T13:14:22;3.22;;;1.90;;
9801;SDS011;4940;50.900;4.672;2023-02-28T13:16:57;2.60;;;1.92;;
9801;SDS011;4940;50.900;4.672;2023-02-28T13:19:28;3.25;;;2.15;;
9801;SDS011;4940;50.900;4.672;2023-02-28T13:21:57;2.70;;;1.90;;
9801;SDS011;4940;50.900;4.672;2023-02-28T13:24:43;2.40;;;1.77;;
9801;SDS011;4940;50.900;4.672;2023-02-28T13:33:27;3.50;;;2.25;;
9801;SDS011;4940;50.900;4.672;2023-02-28T13:36:07;3.85;;;1.90;;
9801;SDS011;4940;50.900;4.672;2023-02-28T13:38:39;3.20;;;2.03;;
9801;SDS011;4940;50.900;4.672;2023-02-28T13:44:17;2.85;;;1.70;;
9801;SDS011;4940;50.900;4.672;2023-02-28T13:49:50;2.80;;;2.00;;
9801;SDS011;4940;50.900;4.672;2023-02-28T13:52:20;2.92;;;1.98;;
9801;SDS011;4940;50.900;4.672;2023-02-28T13:54:54;3.67;;;2.07;;
9801;SDS011;4940;50.900;4.672;2023-02-28T13:57:31;3.83;;;2.35;;
9801;SDS011;4940;50.900;4.672;2023-02-28T14:00:17;2.75;;;2.20;;
9801;SDS011;4940;50.900;4.672;2023-02-28T14:03:02;4.22;;;2.03;;
9801;SDS011;4940;50.900;4.672;2023-02-28T14:05:43;3.37;;;2.13;;
9801;SDS011;4940;50.900;4.672;2023-02-28T14:08:12;4.57;;;2.40;;
9801;SDS011;4940;50.900;4.672;2023-02-28T14:10:44;2.97;;;2.30;;
9801;SDS011;4940;50.900;4.672;2023-02-28T14:13:13;3.78;;;2.17;;
9801;SDS011;4940;50.900;4.672;2023-02-28T14:15:57;2.72;;;2.08;;
9801;SDS011;4940;50.900;4.672;2023-02-28T14:18:28;4.90;;;2.60;;
9801;SDS011;4940;50.900;4.672;2023-02-28T14:20:58;2.97;;;2.03;;
9801;SDS011;4940;50.900;4.672;2023-02-28T14:23:33;3.22;;;2.58;;
9801;SDS011;4940;50.900;4.672;2023-02-28T14:26:16;3.75;;;2.08;;
9801;SDS011;4940;50.900;4.672;2023-02-28T14:28:56;2.90;;;2.00;;
9801;SDS011;4940;50.900;4.672;2023-02-28T14:31:42;6.15;;;2.70;;
9801;SDS011;4940;50.900;4.672;2023-02-28T14:34:20;3.13;;;2.17;;
9801;SDS011;4940;50.900;4.672;2023-02-28T14:36:57;3.80;;;2.75;;
9801;SDS011;4940;50.900;4.672;2023-02-28T14:39:27;2.83;;;2.33;;
9801;SDS011;4940;50.900;4.672;2023-02-28T14:41:56;3.88;;;2.33;;
9801;SDS011;4940;50.900;4.672;2023-02-28T14:44:28;4.63;;;2.63;;
9801;SDS011;4940;50.900;4.672;2023-02-28T14:46:57;6.30;;;2.53;;
9801;SDS011;4940;50.900;4.672;2023-02-28T14:49:30;3.25;;;2.20;;
9801;SDS011;4940;50.900;4.672;2023-02-28T14:52:05;5.68;;;2.78;;
9801;SDS011;4940;50.900;4.672;2023-02-28T14:54:35;2.00;;;1.80;;
9801;SDS011;4940;50.900;4.672;2023-02-28T14:57:03;6.13;;;2.40;;
9801;SDS011;4940;50.900;4.672;2023-02-28T14:59:31;5.75;;;2.33;;
9801;SDS011;4940;50.900;4.672;2023-02-28T15:02:20;3.05;;;2.50;;
9801;SDS011;4940;50.900;4.672;2023-02-28T15:04:52;2.85;;;2.05;;
9801;SDS011;4940;50.900;4.672;2023-02-28T15:07:21;3.40;;;2.22;;
9801;SDS011;4940;50.900;4.672;2023-02-28T15:12:37;2.60;;;2.05;;
9801;SDS011;4940;50.900;4.672;2023-02-28T15:15:05;3.40;;;2.50;;
9801;SDS011;4940;50.900;4.672;2023-02-28T15:17:35;4.18;;;2.25;;
9801;SDS011;4940;50.900;4.672;2023-02-28T15:20:02;3.25;;;2.08;;
9801;SDS011;4940;50.900;4.672;2023-02-28T15:22:31;2.47;;;2.25;;
9801;SDS011;4940;50.900;4.672;2023-02-28T15:25:03;2.60;;;1.90;;
9801;SDS011;4940;50.900;4.672;2023-02-28T15:27:33;5.15;;;2.58;;
9801;SDS011;4940;50.900;4.672;2023-02-28T15:30:04;2.60;;;1.85;;
9801;SDS011;4940;50.900;4.672;2023-02-28T15:32:34;4.30;;;2.40;;
9801;SDS011;4940;50.900;4.672;2023-02-28T15:35:17;2.88;;;2.22;;
9801;SDS011;4940;50.900;4.672;2023-02-28T15:37:46;2.20;;;1.83;;
9801;SDS011;4940;50.900;4.672;2023-02-28T15:40:15;3.22;;;2.47;;
9801;SDS011;4940;50.900;4.672;2023-02-28T15:42:58;3.75;;;2.50;;
9801;SDS011;4940;50.900;4.672;2023-02-28T15:45:34;3.08;;;2.20;;
9801;SDS011;4940;50.900;4.672;2023-02-28T15:48:05;3.83;;;2.47;;
9801;SDS011;4940;50.900;4.672;2023-02-28T15:50:39;3.78;;;2.40;;
9801;SDS011;4940;50.900;4.672;2023-02-28T15:53:09;2.80;;;2.22;;
9801;SDS011;4940;50.900;4.672;2023-02-28T15:55:40;4.82;;;2.50;;
9801;SDS011;4940;50.900;4.672;2023-02-28T15:58:08;2.67;;;2.17;;
9801;SDS011;4940;50.900;4.672;2023-02-28T16:00:38;2.60;;;2.15;;
9801;SDS011;4940;50.900;4.672;2023-02-28T16:03:24;3.05;;;2.40;;